Union Springs, New York
Current Conditions -  °F | °C
As of 11:53 AM on Tuesday 27 Jan 2015 (Local Time) from KPEO Reporting Station
Light Snow Light Snow  
Wind Chill:   Ceiling: 1600
Heat Index: 15°   Visibility: 5mi
Dew Point:   Wind: 10mph
Humidity: 70%   Direction: 330°NNW
Pressure: 29.91"   Gusts: NA
Location:  42.84°N, 76.69°W
Report Text: KPEO 271653Z AUTO 33009KT 5SM -SN OVC016 M09/M14 A2991 RMK AO2 SLP148 P0000 T10941139
Loading
Personal Weather Stations






























Interactive Weather Map New forecast layout! Learn more

10-Day Weather Forecast

Advertisements
Track Severe Weather on mobile